createdAt,value
2018-11-11T00:01:26.221Z,10.40
2018-11-11T00:06:29.946Z,10.00
2018-11-11T00:11:33.464Z,9.00
2018-11-11T00:16:36.966Z,10.80
2018-11-11T00:21:40.498Z,8.50
2018-11-11T00:26:44.033Z,11.50
2018-11-11T00:31:47.485Z,7.60
2018-11-11T00:36:50.932Z,9.80
2018-11-11T00:41:54.417Z,8.25
2018-11-11T00:46:57.904Z,8.40
2018-11-11T00:52:01.405Z,8.25
2018-11-11T00:57:04.855Z,9.20
2018-11-11T01:02:08.318Z,9.00
2018-11-11T01:07:11.847Z,9.40
2018-11-11T01:12:15.362Z,8.00
2018-11-11T01:17:19.055Z,9.00
2018-11-11T01:22:22.510Z,6.40
2018-11-11T01:27:26.024Z,8.40
2018-11-11T01:32:29.442Z,7.00
2018-11-11T01:37:32.978Z,7.40
2018-11-11T01:42:36.543Z,8.00
2018-11-11T01:47:40.073Z,7.80
2018-11-11T01:52:43.594Z,8.00
2018-11-11T01:57:47.202Z,9.00
2018-11-11T02:02:50.825Z,9.80
2018-11-11T02:07:54.440Z,8.00
2018-11-11T02:12:57.890Z,6.40
2018-11-11T02:18:01.330Z,6.25
2018-11-11T02:23:04.940Z,6.80
2018-11-11T02:28:08.439Z,9.25
2018-11-11T02:33:11.858Z,8.00
2018-11-11T02:38:15.283Z,8.00
2018-11-11T02:43:18.740Z,8.20
2018-11-11T02:48:22.156Z,6.25
2018-11-11T02:53:25.693Z,6.20
2018-11-11T02:58:29.191Z,6.75
2018-11-11T03:03:32.607Z,7.50
2018-11-11T03:08:36.133Z,5.60
2018-11-11T03:13:39.569Z,7.00
2018-11-11T03:18:43.081Z,7.80
2018-11-11T03:23:46.614Z,9.00
2018-11-11T03:28:50.045Z,6.40
2018-11-11T03:33:53.505Z,6.75
2018-11-11T03:38:56.957Z,6.00
2018-11-11T03:44:00.366Z,7.50
2018-11-11T03:49:03.895Z,5.20
2018-11-11T03:54:07.321Z,6.00
2018-11-11T03:59:10.711Z,7.20
2018-11-11T04:04:14.249Z,5.00
2018-11-11T04:09:17.828Z,6.80
2018-11-11T04:14:21.252Z,6.25
2018-11-11T04:19:25.662Z,6.50
2018-11-11T04:24:29.156Z,4.60
2018-11-11T04:29:32.574Z,5.25
2018-11-11T04:34:36.016Z,6.00
2018-11-11T04:39:40.073Z,4.25
2018-11-11T04:44:43.574Z,6.00
2018-11-11T04:49:47.029Z,6.40
2018-11-11T04:54:50.599Z,6.00
2018-11-11T04:59:54.109Z,6.60
2018-11-11T05:04:57.613Z,5.50
2018-11-11T05:10:01.157Z,5.20
2018-11-11T05:15:04.878Z,5.00
2018-11-11T05:20:09.323Z,6.20
2018-11-11T05:25:13.984Z,6.00
2018-11-11T05:30:17.392Z,5.80
2018-11-11T05:35:20.888Z,4.40
2018-11-11T05:40:24.383Z,5.20
2018-11-11T05:45:27.962Z,7.00
2018-11-11T05:50:31.377Z,5.00
2018-11-11T05:55:34.827Z,6.60
2018-11-11T06:00:38.612Z,5.00
2018-11-11T06:05:42.028Z,4.40
2018-11-11T06:10:45.449Z,6.00
2018-11-11T06:15:48.897Z,4.00
2018-11-11T06:20:52.300Z,7.00
2018-11-11T06:25:55.727Z,5.00
2018-11-11T06:30:59.140Z,4.25
2018-11-11T06:36:02.617Z,4.00
2018-11-11T06:41:06.406Z,6.00
2018-11-11T06:46:09.834Z,4.25
2018-11-11T06:51:13.245Z,5.00
2018-11-11T06:56:16.638Z,7.25
2018-11-11T07:01:20.034Z,4.00
2018-11-11T07:06:24.121Z,3.80
2018-11-11T07:11:27.529Z,4.00
2018-11-11T07:16:30.954Z,6.80
2018-11-11T07:21:34.425Z,5.25
2018-11-11T07:26:38.069Z,4.20
2018-11-11T07:31:41.473Z,5.00
2018-11-11T07:36:44.899Z,4.20
2018-11-11T07:41:48.322Z,4.40
2018-11-11T07:46:51.743Z,5.80
2018-11-11T07:51:55.318Z,4.80
2018-11-11T07:56:58.815Z,3.00
2018-11-11T08:02:02.401Z,4.50
2018-11-11T08:07:06.418Z,24.80
2018-11-11T08:12:09.881Z,23.80
2018-11-11T08:17:13.321Z,25.75
2018-11-11T08:22:16.787Z,20.20
2018-11-11T08:27:20.267Z,20.00
2018-11-11T08:32:24.003Z,17.40
2018-11-11T08:37:27.494Z,17.25
2018-11-11T08:42:33.990Z,20.20
2018-11-11T08:47:37.435Z,22.50
2018-11-11T08:52:41.178Z,20.40
2018-11-11T08:57:44.672Z,21.60
2018-11-11T09:02:48.781Z,20.50
2018-11-11T09:07:52.285Z,19.75
2018-11-11T09:12:55.789Z,20.25
2018-11-11T09:17:59.321Z,18.40
2018-11-11T09:23:03.025Z,15.80
2018-11-11T09:28:06.728Z,15.00
2018-11-11T09:33:10.240Z,16.60
2018-11-11T09:38:13.718Z,16.00
2018-11-11T09:43:17.190Z,18.80
2018-11-11T09:48:20.885Z,18.00
2018-11-11T09:53:24.516Z,17.00
2018-11-11T09:58:28.099Z,17.60
2018-11-11T10:03:35.359Z,21.25
2018-11-11T10:09:48.011Z,20.40
2018-11-11T10:15:01.370Z,15.75
2018-11-11T10:20:11.643Z,16.50
2018-11-11T10:25:25.274Z,18.25
2018-11-11T10:30:39.632Z,19.00
2018-11-11T10:35:47.002Z,18.40
2018-11-11T10:41:04.629Z,15.00
2018-11-11T10:46:16.800Z,19.00
2018-11-11T10:51:20.439Z,17.50
2018-11-11T10:56:24.121Z,12.50
2018-11-11T11:02:30.667Z,16.25
2018-11-11T11:07:34.142Z,14.25
2018-11-11T11:12:38.157Z,16.00
2018-11-11T11:17:42.263Z,15.00
2018-11-11T11:22:46.270Z,15.00
2018-11-11T11:27:50.371Z,13.20
2018-11-11T11:32:53.830Z,13.40
2018-11-11T11:37:57.475Z,13.25
2018-11-11T11:43:00.937Z,11.60
2018-11-11T11:48:04.388Z,12.00
2018-11-11T11:53:08.731Z,14.80
2018-11-11T11:58:20.883Z,14.75
2018-11-11T12:03:24.320Z,19.00
2018-11-11T12:08:27.821Z,18.80
2018-11-11T12:13:31.274Z,15.40
2018-11-11T12:18:34.695Z,14.50
2018-11-11T12:23:38.297Z,19.25
2018-11-11T12:28:41.789Z,14.80
2018-11-11T12:33:45.420Z,12.75
2018-11-11T12:38:48.857Z,14.60
2018-11-11T12:43:52.402Z,13.40
2018-11-11T12:48:56.048Z,10.80
2018-11-11T12:53:59.594Z,11.00
2018-11-11T12:59:03.042Z,10.00
2018-11-11T13:04:06.499Z,10.00
2018-11-11T13:09:10.462Z,8.00
2018-11-11T13:14:13.858Z,11.00
2018-11-11T13:19:17.342Z,9.00
2018-11-11T13:24:20.780Z,6.00
2018-11-11T13:29:24.490Z,5.20
2018-11-11T13:34:28.199Z,7.80
2018-11-11T13:39:31.712Z,6.00
2018-11-11T13:44:35.144Z,6.75
2018-11-11T13:49:38.546Z,6.00
2018-11-11T13:54:42.006Z,4.00
2018-11-11T13:59:45.448Z,6.50
2018-11-11T14:04:48.891Z,4.80
2018-11-11T14:09:52.302Z,4.25
2018-11-11T14:14:55.802Z,5.40
2018-11-11T14:19:59.401Z,4.60
2018-11-11T14:25:02.961Z,4.80
2018-11-11T14:30:09.521Z,4.20
2018-11-11T14:35:13.599Z,5.00
2018-11-11T14:40:22.854Z,3.50
2018-11-11T14:45:26.801Z,4.50
2018-11-11T14:50:30.317Z,3.50
2018-11-11T14:55:33.768Z,4.20
2018-11-11T15:00:37.267Z,5.00
2018-11-11T15:05:40.682Z,3.60
2018-11-11T15:10:44.189Z,3.40
2018-11-11T15:15:47.683Z,5.00
2018-11-11T15:20:51.270Z,3.00
2018-11-11T15:25:54.562Z,4.00
2018-11-11T15:30:58.272Z,4.00
2018-11-11T15:36:02.557Z,4.20
2018-11-11T15:41:05.973Z,3.00
2018-11-11T15:46:09.505Z,4.50
2018-11-11T15:51:13.101Z,4.00
2018-11-11T15:56:16.879Z,4.25
2018-11-11T16:01:20.451Z,3.25
2018-11-11T16:06:24.492Z,3.00
2018-11-11T16:11:27.874Z,4.00
2018-11-11T16:16:31.287Z,4.25
2018-11-11T16:21:34.813Z,4.00
2018-11-11T16:26:38.247Z,4.00
2018-11-11T16:31:41.825Z,4.00
2018-11-11T16:36:45.399Z,4.25
2018-11-11T16:41:48.891Z,5.40
2018-11-11T16:46:52.428Z,3.75
2018-11-11T16:51:55.948Z,3.40
2018-11-11T16:56:59.444Z,2.25
2018-11-11T17:02:03.994Z,2.20
2018-11-11T17:07:07.415Z,2.50
2018-11-11T17:12:10.949Z,4.20
2018-11-11T17:17:14.617Z,3.75
2018-11-11T17:22:18.419Z,4.50
2018-11-11T17:27:21.530Z,3.60
2018-11-11T17:32:24.962Z,3.60
2018-11-11T17:37:28.346Z,3.00
2018-11-11T17:42:31.737Z,4.00
2018-11-11T17:47:35.137Z,4.40
2018-11-11T17:52:39.009Z,3.00
2018-11-11T17:57:43.027Z,3.00
2018-11-11T18:02:46.674Z,2.75
2018-11-11T18:07:50.234Z,3.20
2018-11-11T18:12:53.786Z,3.75
2018-11-11T18:17:57.342Z,2.40
2018-11-11T18:23:01.649Z,4.00
2018-11-11T18:28:05.366Z,3.25
2018-11-11T18:33:08.632Z,3.50
2018-11-11T18:38:12.059Z,4.60
2018-11-11T18:43:15.477Z,4.00
2018-11-11T18:48:18.883Z,1.40
2018-11-11T18:53:22.336Z,2.00
2018-11-11T18:58:25.798Z,2.80
2018-11-11T19:03:29.342Z,3.00
2018-11-11T19:08:32.906Z,3.00
2018-11-11T19:13:36.488Z,4.50
2018-11-11T19:18:40.688Z,2.00
2018-11-11T19:23:44.598Z,3.00
2018-11-11T19:28:48.025Z,2.00
2018-11-11T19:33:51.498Z,3.00
2018-11-11T19:38:54.927Z,2.00
2018-11-11T19:43:58.317Z,2.75
2018-11-11T19:49:01.782Z,2.00
2018-11-11T19:54:05.401Z,4.25
2018-11-11T19:59:08.833Z,2.40
2018-11-11T20:04:12.388Z,3.00
2018-11-11T20:09:15.838Z,3.20
2018-11-11T20:14:19.323Z,2.80
2018-11-11T20:19:22.750Z,2.20
2018-11-11T20:24:26.219Z,3.00
2018-11-11T20:29:29.649Z,3.00
2018-11-11T20:34:32.083Z,2.60
2018-11-11T20:39:35.488Z,2.40
2018-11-11T20:44:39.948Z,2.80
2018-11-11T20:49:43.610Z,3.25
2018-11-11T20:54:48.479Z,1.60
2018-11-11T20:59:51.908Z,2.00
2018-11-11T21:04:55.378Z,2.25
2018-11-11T21:09:58.815Z,2.20
2018-11-11T21:15:02.354Z,1.75
2018-11-11T21:20:07.925Z,1.60
2018-11-11T21:25:11.458Z,2.20
2018-11-11T21:30:16.252Z,2.25
2018-11-11T21:35:19.739Z,2.00
2018-11-11T21:40:24.225Z,2.40
2018-11-11T21:45:28.853Z,2.00
2018-11-11T21:50:32.289Z,2.00
2018-11-11T21:55:35.703Z,2.40
2018-11-11T22:00:39.199Z,2.00
2018-11-11T22:05:42.586Z,2.00
2018-11-11T22:10:46.011Z,2.00
2018-11-11T22:15:49.650Z,2.60
2018-11-11T22:20:53.030Z,2.00
2018-11-11T22:25:56.486Z,2.25
2018-11-11T22:30:59.937Z,2.00
2018-11-11T22:36:03.625Z,2.80
2018-11-11T22:41:07.089Z,2.00
2018-11-11T22:46:10.564Z,2.00
2018-11-11T22:51:14.011Z,2.00
2018-11-11T22:56:17.470Z,1.40
2018-11-11T23:01:22.120Z,2.20
2018-11-11T23:06:25.472Z,1.00
2018-11-11T23:11:28.925Z,2.80
2018-11-11T23:16:32.467Z,1.00
2018-11-11T23:21:36.519Z,2.80
2018-11-11T23:26:40.326Z,2.00
2018-11-11T23:31:44.210Z,2.25
2018-11-11T23:36:47.975Z,1.20
2018-11-11T23:41:52.788Z,1.80
2018-11-11T23:46:56.223Z,2.20
2018-11-11T23:51:59.718Z,1.00
2018-11-11T23:57:10.080Z,1.80
